sensor_id;sensor_type;location;lat;lon;timestamp;P1;durP1;ratioP1;P2;durP2;ratioP2
64799;SDS011;51233;51.982;4.594;2023-04-06T00:02:42;13.70;;;11.48;;
64799;SDS011;51233;51.982;4.594;2023-04-06T00:05:42;15.23;;;11.20;;
64799;SDS011;51233;51.982;4.594;2023-04-06T00:08:42;13.67;;;11.00;;
64799;SDS011;51233;51.982;4.594;2023-04-06T00:11:43;14.37;;;11.00;;
64799;SDS011;51233;51.982;4.594;2023-04-06T00:14:43;15.50;;;10.60;;
64799;SDS011;51233;51.982;4.594;2023-04-06T00:17:43;14.02;;;10.07;;
64799;SDS011;51233;51.982;4.594;2023-04-06T00:20:43;13.23;;;10.47;;
64799;SDS011;51233;51.982;4.594;2023-04-06T00:23:43;14.55;;;10.23;;
64799;SDS011;51233;51.982;4.594;2023-04-06T00:26:43;16.77;;;10.70;;
64799;SDS011;51233;51.982;4.594;2023-04-06T00:29:44;11.80;;;9.80;;
64799;SDS011;51233;51.982;4.594;2023-04-06T00:32:45;13.97;;;9.60;;
64799;SDS011;51233;51.982;4.594;2023-04-06T00:35:45;10.52;;;9.32;;
64799;SDS011;51233;51.982;4.594;2023-04-06T00:38:48;14.40;;;9.07;;
64799;SDS011;51233;51.982;4.594;2023-04-06T00:41:51;13.23;;;9.48;;
64799;SDS011;51233;51.982;4.594;2023-04-06T00:44:53;11.07;;;9.30;;
64799;SDS011;51233;51.982;4.594;2023-04-06T00:47:53;10.93;;;9.23;;
64799;SDS011;51233;51.982;4.594;2023-04-06T00:50:53;14.32;;;9.02;;
64799;SDS011;51233;51.982;4.594;2023-04-06T00:53:53;11.95;;;9.23;;
64799;SDS011;51233;51.982;4.594;2023-04-06T00:56:54;10.57;;;9.03;;
64799;SDS011;51233;51.982;4.594;2023-04-06T00:59:55;13.63;;;9.03;;
64799;SDS011;51233;51.982;4.594;2023-04-06T01:02:55;9.87;;;8.53;;
64799;SDS011;51233;51.982;4.594;2023-04-06T01:05:56;13.73;;;9.10;;
64799;SDS011;51233;51.982;4.594;2023-04-06T01:12:01;9.32;;;8.32;;
64799;SDS011;51233;51.982;4.594;2023-04-06T01:15:02;14.50;;;9.18;;
64799;SDS011;51233;51.982;4.594;2023-04-06T01:18:02;10.40;;;8.73;;
64799;SDS011;51233;51.982;4.594;2023-04-06T01:21:04;11.25;;;8.45;;
64799;SDS011;51233;51.982;4.594;2023-04-06T01:24:05;10.40;;;8.67;;
64799;SDS011;51233;51.982;4.594;2023-04-06T01:27:05;11.37;;;9.20;;
64799;SDS011;51233;51.982;4.594;2023-04-06T01:30:06;12.77;;;8.80;;
64799;SDS011;51233;51.982;4.594;2023-04-06T01:33:06;11.67;;;9.10;;
64799;SDS011;51233;51.982;4.594;2023-04-06T01:36:06;8.93;;;8.02;;
64799;SDS011;51233;51.982;4.594;2023-04-06T01:39:06;11.17;;;8.47;;
64799;SDS011;51233;51.982;4.594;2023-04-06T01:42:07;11.67;;;9.47;;
64799;SDS011;51233;51.982;4.594;2023-04-06T01:45:07;9.75;;;8.43;;
64799;SDS011;51233;51.982;4.594;2023-04-06T01:48:07;12.97;;;8.57;;
64799;SDS011;51233;51.982;4.594;2023-04-06T01:51:10;10.80;;;9.20;;
64799;SDS011;51233;51.982;4.594;2023-04-06T01:54:11;9.50;;;8.50;;
64799;SDS011;51233;51.982;4.594;2023-04-06T01:57:11;10.77;;;8.98;;
64799;SDS011;51233;51.982;4.594;2023-04-06T02:00:11;10.27;;;9.17;;
64799;SDS011;51233;51.982;4.594;2023-04-06T02:03:12;13.63;;;8.83;;
64799;SDS011;51233;51.982;4.594;2023-04-06T02:06:13;11.38;;;8.73;;
64799;SDS011;51233;51.982;4.594;2023-04-06T02:09:13;14.18;;;9.48;;
64799;SDS011;51233;51.982;4.594;2023-04-06T02:12:14;9.43;;;8.47;;
64799;SDS011;51233;51.982;4.594;2023-04-06T02:15:14;10.48;;;9.35;;
64799;SDS011;51233;51.982;4.594;2023-04-06T02:18:14;11.67;;;8.77;;
64799;SDS011;51233;51.982;4.594;2023-04-06T02:21:17;12.07;;;8.45;;
64799;SDS011;51233;51.982;4.594;2023-04-06T02:24:20;10.75;;;9.23;;
64799;SDS011;51233;51.982;4.594;2023-04-06T02:27:20;10.30;;;9.20;;
64799;SDS011;51233;51.982;4.594;2023-04-06T02:30:20;14.55;;;8.98;;
64799;SDS011;51233;51.982;4.594;2023-04-06T02:33:20;11.05;;;9.18;;
64799;SDS011;51233;51.982;4.594;2023-04-06T02:36:20;11.73;;;8.63;;
64799;SDS011;51233;51.982;4.594;2023-04-06T02:39:21;12.25;;;9.02;;
64799;SDS011;51233;51.982;4.594;2023-04-06T02:42:21;12.20;;;9.48;;
64799;SDS011;51233;51.982;4.594;2023-04-06T02:45:21;12.25;;;9.02;;
64799;SDS011;51233;51.982;4.594;2023-04-06T02:48:21;14.50;;;9.50;;
64799;SDS011;51233;51.982;4.594;2023-04-06T02:51:21;11.48;;;9.35;;
64799;SDS011;51233;51.982;4.594;2023-04-06T02:54:22;17.88;;;9.30;;
64799;SDS011;51233;51.982;4.594;2023-04-06T02:57:22;12.27;;;9.67;;
64799;SDS011;51233;51.982;4.594;2023-04-06T03:00:22;11.70;;;10.15;;
64799;SDS011;51233;51.982;4.594;2023-04-06T03:03:22;10.73;;;9.63;;
64799;SDS011;51233;51.982;4.594;2023-04-06T03:06:22;11.63;;;9.35;;
64799;SDS011;51233;51.982;4.594;2023-04-06T03:09:22;10.18;;;8.82;;
64799;SDS011;51233;51.982;4.594;2023-04-06T03:12:23;11.65;;;9.18;;
64799;SDS011;51233;51.982;4.594;2023-04-06T03:15:28;15.10;;;9.93;;
64799;SDS011;51233;51.982;4.594;2023-04-06T03:18:28;11.57;;;9.77;;
64799;SDS011;51233;51.982;4.594;2023-04-06T03:21:29;10.57;;;9.23;;
64799;SDS011;51233;51.982;4.594;2023-04-06T03:24:29;9.50;;;8.55;;
64799;SDS011;51233;51.982;4.594;2023-04-06T03:27:38;12.13;;;9.77;;
64799;SDS011;51233;51.982;4.594;2023-04-06T03:30:39;11.18;;;9.52;;
64799;SDS011;51233;51.982;4.594;2023-04-06T03:33:39;11.43;;;10.18;;
64799;SDS011;51233;51.982;4.594;2023-04-06T03:36:39;13.57;;;10.20;;
64799;SDS011;51233;51.982;4.594;2023-04-06T03:39:39;10.50;;;9.50;;
64799;SDS011;51233;51.982;4.594;2023-04-06T03:42:40;13.80;;;10.33;;
64799;SDS011;51233;51.982;4.594;2023-04-06T03:45:40;10.30;;;9.30;;
64799;SDS011;51233;51.982;4.594;2023-04-06T03:48:43;11.52;;;9.57;;
64799;SDS011;51233;51.982;4.594;2023-04-06T03:51:43;13.63;;;10.13;;
64799;SDS011;51233;51.982;4.594;2023-04-06T03:54:43;15.07;;;10.13;;
64799;SDS011;51233;51.982;4.594;2023-04-06T03:57:43;12.60;;;10.17;;
64799;SDS011;51233;51.982;4.594;2023-04-06T04:00:43;14.65;;;9.88;;
64799;SDS011;51233;51.982;4.594;2023-04-06T04:03:46;12.38;;;9.65;;
64799;SDS011;51233;51.982;4.594;2023-04-06T04:06:49;11.13;;;9.35;;
64799;SDS011;51233;51.982;4.594;2023-04-06T04:09:49;11.27;;;9.25;;
64799;SDS011;51233;51.982;4.594;2023-04-06T04:12:50;13.70;;;10.73;;
64799;SDS011;51233;51.982;4.594;2023-04-06T04:15:50;14.80;;;10.77;;
64799;SDS011;51233;51.982;4.594;2023-04-06T04:18:50;12.68;;;10.15;;
64799;SDS011;51233;51.982;4.594;2023-04-06T04:21:50;13.97;;;9.60;;
64799;SDS011;51233;51.982;4.594;2023-04-06T04:24:50;13.88;;;10.45;;
64799;SDS011;51233;51.982;4.594;2023-04-06T04:27:51;15.00;;;11.05;;
64799;SDS011;51233;51.982;4.594;2023-04-06T04:30:51;14.23;;;11.15;;
64799;SDS011;51233;51.982;4.594;2023-04-06T04:33:51;13.00;;;10.68;;
64799;SDS011;51233;51.982;4.594;2023-04-06T04:36:54;12.25;;;10.65;;
64799;SDS011;51233;51.982;4.594;2023-04-06T04:39:54;16.70;;;12.38;;
64799;SDS011;51233;51.982;4.594;2023-04-06T04:42:54;14.23;;;11.35;;
64799;SDS011;51233;51.982;4.594;2023-04-06T04:45:55;14.00;;;11.43;;
64799;SDS011;51233;51.982;4.594;2023-04-06T04:48:55;13.15;;;10.68;;
64799;SDS011;51233;51.982;4.594;2023-04-06T04:51:55;17.03;;;12.37;;
64799;SDS011;51233;51.982;4.594;2023-04-06T04:54:58;16.08;;;12.05;;
64799;SDS011;51233;51.982;4.594;2023-04-06T04:57:59;17.70;;;12.13;;
64799;SDS011;51233;51.982;4.594;2023-04-06T05:00:59;19.05;;;13.27;;
64799;SDS011;51233;51.982;4.594;2023-04-06T05:03:59;17.85;;;13.13;;
64799;SDS011;51233;51.982;4.594;2023-04-06T05:07:06;21.88;;;12.75;;
64799;SDS011;51233;51.982;4.594;2023-04-06T05:10:06;19.48;;;13.60;;
64799;SDS011;51233;51.982;4.594;2023-04-06T05:13:07;19.73;;;14.00;;
64799;SDS011;51233;51.982;4.594;2023-04-06T05:16:10;19.80;;;13.45;;
64799;SDS011;51233;51.982;4.594;2023-04-06T05:19:10;18.55;;;14.32;;
64799;SDS011;51233;51.982;4.594;2023-04-06T05:22:11;19.38;;;13.93;;
64799;SDS011;51233;51.982;4.594;2023-04-06T05:25:14;19.58;;;13.88;;
64799;SDS011;51233;51.982;4.594;2023-04-06T05:28:14;23.30;;;15.43;;
64799;SDS011;51233;51.982;4.594;2023-04-06T05:31:15;21.23;;;14.83;;
64799;SDS011;51233;51.982;4.594;2023-04-06T05:34:16;20.65;;;15.55;;
64799;SDS011;51233;51.982;4.594;2023-04-06T05:37:16;20.73;;;14.77;;
64799;SDS011;51233;51.982;4.594;2023-04-06T05:40:16;20.67;;;14.77;;
64799;SDS011;51233;51.982;4.594;2023-04-06T05:43:17;22.90;;;15.30;;
64799;SDS011;51233;51.982;4.594;2023-04-06T05:46:17;20.08;;;14.98;;
64799;SDS011;51233;51.982;4.594;2023-04-06T05:49:24;21.77;;;14.33;;
64799;SDS011;51233;51.982;4.594;2023-04-06T05:52:24;24.40;;;15.50;;
64799;SDS011;51233;51.982;4.594;2023-04-06T05:55:24;22.38;;;14.85;;
64799;SDS011;51233;51.982;4.594;2023-04-06T05:58:24;25.10;;;16.60;;
64799;SDS011;51233;51.982;4.594;2023-04-06T06:01:25;20.17;;;15.60;;
64799;SDS011;51233;51.982;4.594;2023-04-06T06:04:25;23.20;;;16.57;;
64799;SDS011;51233;51.982;4.594;2023-04-06T06:07:25;23.73;;;17.02;;
64799;SDS011;51233;51.982;4.594;2023-04-06T06:10:26;25.44;;;18.68;;
64799;SDS011;51233;51.982;4.594;2023-04-06T06:13:26;25.23;;;16.33;;
64799;SDS011;51233;51.982;4.594;2023-04-06T06:16:26;24.42;;;17.45;;
64799;SDS011;51233;51.982;4.594;2023-04-06T06:19:26;24.77;;;18.48;;
64799;SDS011;51233;51.982;4.594;2023-04-06T06:22:29;23.17;;;16.67;;
64799;SDS011;51233;51.982;4.594;2023-04-06T06:25:30;22.15;;;15.30;;
64799;SDS011;51233;51.982;4.594;2023-04-06T06:28:33;22.45;;;16.75;;
64799;SDS011;51233;51.982;4.594;2023-04-06T06:31:33;21.65;;;15.98;;
64799;SDS011;51233;51.982;4.594;2023-04-06T06:34:36;24.67;;;17.77;;
64799;SDS011;51233;51.982;4.594;2023-04-06T06:37:36;26.90;;;17.42;;
64799;SDS011;51233;51.982;4.594;2023-04-06T06:40:36;25.83;;;18.13;;
64799;SDS011;51233;51.982;4.594;2023-04-06T06:43:39;23.53;;;16.73;;
64799;SDS011;51233;51.982;4.594;2023-04-06T06:46:40;28.65;;;19.30;;
64799;SDS011;51233;51.982;4.594;2023-04-06T06:49:43;27.05;;;16.67;;
64799;SDS011;51233;51.982;4.594;2023-04-06T06:52:43;25.02;;;15.30;;
64799;SDS011;51233;51.982;4.594;2023-04-06T06:55:43;23.33;;;15.95;;
64799;SDS011;51233;51.982;4.594;2023-04-06T06:58:48;26.13;;;17.92;;
64799;SDS011;51233;51.982;4.594;2023-04-06T07:01:49;24.25;;;16.27;;
64799;SDS011;51233;51.982;4.594;2023-04-06T07:04:52;27.40;;;18.50;;
64799;SDS011;51233;51.982;4.594;2023-04-06T07:07:53;25.83;;;19.00;;
64799;SDS011;51233;51.982;4.594;2023-04-06T07:10:53;30.70;;;19.38;;
64799;SDS011;51233;51.982;4.594;2023-04-06T07:13:55;25.25;;;16.65;;
64799;SDS011;51233;51.982;4.594;2023-04-06T07:16:56;20.55;;;16.95;;
64799;SDS011;51233;51.982;4.594;2023-04-06T07:19:56;23.40;;;17.10;;
64799;SDS011;51233;51.982;4.594;2023-04-06T07:22:56;23.10;;;15.80;;
64799;SDS011;51233;51.982;4.594;2023-04-06T07:25:56;24.98;;;16.73;;
64799;SDS011;51233;51.982;4.594;2023-04-06T07:28:59;23.00;;;18.17;;
64799;SDS011;51233;51.982;4.594;2023-04-06T07:32:00;25.88;;;19.05;;
64799;SDS011;51233;51.982;4.594;2023-04-06T07:35:03;20.92;;;17.02;;
64799;SDS011;51233;51.982;4.594;2023-04-06T07:38:03;27.77;;;18.23;;
64799;SDS011;51233;51.982;4.594;2023-04-06T07:41:03;22.05;;;16.75;;
64799;SDS011;51233;51.982;4.594;2023-04-06T07:44:04;21.17;;;16.00;;
64799;SDS011;51233;51.982;4.594;2023-04-06T07:47:04;22.23;;;16.20;;
64799;SDS011;51233;51.982;4.594;2023-04-06T07:50:04;19.95;;;16.02;;
64799;SDS011;51233;51.982;4.594;2023-04-06T07:53:08;22.33;;;18.27;;
64799;SDS011;51233;51.982;4.594;2023-04-06T07:56:09;20.35;;;16.95;;
64799;SDS011;51233;51.982;4.594;2023-04-06T07:59:09;27.77;;;20.08;;
64799;SDS011;51233;51.982;4.594;2023-04-06T08:05:11;24.08;;;17.23;;
64799;SDS011;51233;51.982;4.594;2023-04-06T08:08:14;23.48;;;19.13;;
64799;SDS011;51233;51.982;4.594;2023-04-06T08:11:14;23.30;;;17.80;;
64799;SDS011;51233;51.982;4.594;2023-04-06T08:14:15;20.67;;;17.00;;
64799;SDS011;51233;51.982;4.594;2023-04-06T08:17:18;20.55;;;17.00;;
64799;SDS011;51233;51.982;4.594;2023-04-06T08:20:18;23.10;;;16.98;;
64799;SDS011;51233;51.982;4.594;2023-04-06T08:23:18;19.23;;;15.90;;
64799;SDS011;51233;51.982;4.594;2023-04-06T08:26:18;21.05;;;15.85;;
64799;SDS011;51233;51.982;4.594;2023-04-06T08:29:19;21.47;;;17.83;;
64799;SDS011;51233;51.982;4.594;2023-04-06T08:32:20;24.52;;;16.75;;
64799;SDS011;51233;51.982;4.594;2023-04-06T08:35:20;23.52;;;18.35;;
64799;SDS011;51233;51.982;4.594;2023-04-06T08:38:20;21.63;;;17.27;;
64799;SDS011;51233;51.982;4.594;2023-04-06T08:41:20;19.58;;;16.55;;
64799;SDS011;51233;51.982;4.594;2023-04-06T08:44:21;26.13;;;17.00;;
64799;SDS011;51233;51.982;4.594;2023-04-06T08:47:21;26.65;;;18.70;;
64799;SDS011;51233;51.982;4.594;2023-04-06T08:50:21;18.65;;;12.85;;
64799;SDS011;51233;51.982;4.594;2023-04-06T08:53:22;20.53;;;16.10;;
64799;SDS011;51233;51.982;4.594;2023-04-06T08:56:23;17.17;;;13.07;;
64799;SDS011;51233;51.982;4.594;2023-04-06T08:59:24;18.10;;;13.55;;
64799;SDS011;51233;51.982;4.594;2023-04-06T09:02:24;16.27;;;11.90;;
64799;SDS011;51233;51.982;4.594;2023-04-06T09:05:25;14.68;;;11.52;;
64799;SDS011;51233;51.982;4.594;2023-04-06T09:08:26;15.57;;;11.00;;
64799;SDS011;51233;51.982;4.594;2023-04-06T09:11:26;22.55;;;13.18;;
64799;SDS011;51233;51.982;4.594;2023-04-06T09:14:36;14.65;;;12.40;;
64799;SDS011;51233;51.982;4.594;2023-04-06T09:17:37;15.32;;;11.50;;
64799;SDS011;51233;51.982;4.594;2023-04-06T09:20:40;15.27;;;11.10;;
64799;SDS011;51233;51.982;4.594;2023-04-06T09:23:41;14.30;;;10.10;;
64799;SDS011;51233;51.982;4.594;2023-04-06T09:26:45;9.86;;;8.22;;
64799;SDS011;51233;51.982;4.594;2023-04-06T09:29:46;13.85;;;9.27;;
64799;SDS011;51233;51.982;4.594;2023-04-06T09:32:47;10.68;;;9.13;;
64799;SDS011;51233;51.982;4.594;2023-04-06T09:35:50;10.15;;;9.15;;
64799;SDS011;51233;51.982;4.594;2023-04-06T09:38:57;9.15;;;7.32;;
64799;SDS011;51233;51.982;4.594;2023-04-06T09:41:58;8.95;;;7.28;;
64799;SDS011;51233;51.982;4.594;2023-04-06T09:44:58;7.95;;;7.13;;
64799;SDS011;51233;51.982;4.594;2023-04-06T09:47:58;7.60;;;6.80;;
64799;SDS011;51233;51.982;4.594;2023-04-06T09:51:03;8.38;;;6.20;;
64799;SDS011;51233;51.982;4.594;2023-04-06T09:54:04;8.07;;;6.53;;
64799;SDS011;51233;51.982;4.594;2023-04-06T10:03:42;8.40;;;6.75;;
64799;SDS011;51233;51.982;4.594;2023-04-06T10:06:45;7.20;;;6.50;;
64799;SDS011;51233;51.982;4.594;2023-04-06T10:09:47;8.13;;;7.05;;
64799;SDS011;51233;51.982;4.594;2023-04-06T10:12:48;8.73;;;6.78;;
64799;SDS011;51233;51.982;4.594;2023-04-06T10:15:49;9.70;;;6.83;;
64799;SDS011;51233;51.982;4.594;2023-04-06T10:18:52;7.67;;;6.53;;
64799;SDS011;51233;51.982;4.594;2023-04-06T10:21:56;7.45;;;6.75;;
64799;SDS011;51233;51.982;4.594;2023-04-06T10:24:58;7.60;;;6.85;;
64799;SDS011;51233;51.982;4.594;2023-04-06T10:27:58;7.97;;;7.05;;
64799;SDS011;51233;51.982;4.594;2023-04-06T10:30:59;7.55;;;6.85;;
64799;SDS011;51233;51.982;4.594;2023-04-06T10:34:01;7.43;;;6.72;;
64799;SDS011;51233;51.982;4.594;2023-04-06T10:37:19;7.50;;;6.80;;
64799;SDS011;51233;51.982;4.594;2023-04-06T10:40:21;8.15;;;7.13;;
64799;SDS011;51233;51.982;4.594;2023-04-06T10:43:22;7.82;;;7.13;;
64799;SDS011;51233;51.982;4.594;2023-04-06T10:46:26;7.45;;;6.60;;
64799;SDS011;51233;51.982;4.594;2023-04-06T10:49:27;7.53;;;6.40;;
64799;SDS011;51233;51.982;4.594;2023-04-06T10:52:27;8.45;;;5.88;;
64799;SDS011;51233;51.982;4.594;2023-04-06T10:55:27;7.38;;;6.05;;
64799;SDS011;51233;51.982;4.594;2023-04-06T10:58:28;7.30;;;6.40;;
64799;SDS011;51233;51.982;4.594;2023-04-06T11:01:28;9.13;;;6.50;;
64799;SDS011;51233;51.982;4.594;2023-04-06T11:04:28;7.20;;;6.50;;
64799;SDS011;51233;51.982;4.594;2023-04-06T11:07:29;7.23;;;6.57;;
64799;SDS011;51233;51.982;4.594;2023-04-06T11:10:30;7.53;;;6.83;;
64799;SDS011;51233;51.982;4.594;2023-04-06T11:13:37;7.20;;;5.97;;
64799;SDS011;51233;51.982;4.594;2023-04-06T11:16:38;8.23;;;6.97;;
64799;SDS011;51233;51.982;4.594;2023-04-06T11:19:38;6.73;;;6.13;;
64799;SDS011;51233;51.982;4.594;2023-04-06T11:22:53;7.63;;;6.80;;
64799;SDS011;51233;51.982;4.594;2023-04-06T11:25:53;6.72;;;6.07;;
64799;SDS011;51233;51.982;4.594;2023-04-06T11:28:53;6.47;;;5.88;;
64799;SDS011;51233;51.982;4.594;2023-04-06T11:31:57;7.88;;;7.10;;
64799;SDS011;51233;51.982;4.594;2023-04-06T11:34:58;7.10;;;6.07;;
64799;SDS011;51233;51.982;4.594;2023-04-06T11:38:02;6.40;;;5.90;;
64799;SDS011;51233;51.982;4.594;2023-04-06T11:41:02;9.23;;;6.88;;
64799;SDS011;51233;51.982;4.594;2023-04-06T11:44:02;7.57;;;5.63;;
64799;SDS011;51233;51.982;4.594;2023-04-06T11:47:04;7.90;;;7.18;;
64799;SDS011;51233;51.982;4.594;2023-04-06T11:50:07;7.00;;;6.40;;
64799;SDS011;51233;51.982;4.594;2023-04-06T11:53:08;6.80;;;6.20;;
64799;SDS011;51233;51.982;4.594;2023-04-06T11:56:08;6.95;;;6.25;;
64799;SDS011;51233;51.982;4.594;2023-04-06T11:59:08;6.90;;;6.28;;
64799;SDS011;51233;51.982;4.594;2023-04-06T12:02:10;8.20;;;5.43;;
64799;SDS011;51233;51.982;4.594;2023-04-06T12:05:10;7.18;;;5.90;;
64799;SDS011;51233;51.982;4.594;2023-04-06T12:08:11;6.90;;;6.28;;
64799;SDS011;51233;51.982;4.594;2023-04-06T12:11:14;6.45;;;5.80;;
64799;SDS011;51233;51.982;4.594;2023-04-06T12:14:14;5.07;;;4.70;;
64799;SDS011;51233;51.982;4.594;2023-04-06T12:17:14;5.90;;;5.10;;
64799;SDS011;51233;51.982;4.594;2023-04-06T12:20:18;5.78;;;5.28;;
64799;SDS011;51233;51.982;4.594;2023-04-06T12:23:18;5.70;;;5.30;;
64799;SDS011;51233;51.982;4.594;2023-04-06T12:26:19;7.45;;;5.30;;
64799;SDS011;51233;51.982;4.594;2023-04-06T12:29:19;5.72;;;5.22;;
64799;SDS011;51233;51.982;4.594;2023-04-06T12:32:19;5.93;;;5.25;;
64799;SDS011;51233;51.982;4.594;2023-04-06T12:35:19;5.97;;;5.38;;
64799;SDS011;51233;51.982;4.594;2023-04-06T12:38:20;6.13;;;5.63;;
64799;SDS011;51233;51.982;4.594;2023-04-06T12:41:21;6.25;;;5.70;;
64799;SDS011;51233;51.982;4.594;2023-04-06T12:44:21;5.18;;;4.78;;
64799;SDS011;51233;51.982;4.594;2023-04-06T12:47:21;5.93;;;5.50;;
64799;SDS011;51233;51.982;4.594;2023-04-06T12:50:22;5.35;;;4.85;;
64799;SDS011;51233;51.982;4.594;2023-04-06T12:53:22;6.10;;;5.50;;
64799;SDS011;51233;51.982;4.594;2023-04-06T12:56:23;6.45;;;5.90;;
64799;SDS011;51233;51.982;4.594;2023-04-06T12:59:23;6.15;;;5.60;;
64799;SDS011;51233;51.982;4.594;2023-04-06T13:02:25;7.27;;;5.77;;
64799;SDS011;51233;51.982;4.594;2023-04-06T13:05:25;5.82;;;5.43;;
64799;SDS011;51233;51.982;4.594;2023-04-06T13:08:26;5.75;;;5.13;;
64799;SDS011;51233;51.982;4.594;2023-04-06T13:11:27;5.17;;;4.60;;
64799;SDS011;51233;51.982;4.594;2023-04-06T13:14:27;5.55;;;4.70;;
64799;SDS011;51233;51.982;4.594;2023-04-06T13:17:27;5.73;;;5.33;;
64799;SDS011;51233;51.982;4.594;2023-04-06T13:20:28;5.88;;;5.30;;
64799;SDS011;51233;51.982;4.594;2023-04-06T13:23:28;5.33;;;4.93;;
64799;SDS011;51233;51.982;4.594;2023-04-06T13:26:28;5.60;;;5.07;;
64799;SDS011;51233;51.982;4.594;2023-04-06T13:29:28;6.00;;;5.47;;
64799;SDS011;51233;51.982;4.594;2023-04-06T13:32:28;6.03;;;5.53;;
64799;SDS011;51233;51.982;4.594;2023-04-06T13:35:29;5.25;;;4.65;;
64799;SDS011;51233;51.982;4.594;2023-04-06T13:38:30;5.18;;;4.78;;
64799;SDS011;51233;51.982;4.594;2023-04-06T13:41:36;5.63;;;5.22;;
64799;SDS011;51233;51.982;4.594;2023-04-06T13:44:36;5.38;;;4.90;;
64799;SDS011;51233;51.982;4.594;2023-04-06T13:47:36;4.80;;;4.50;;
64799;SDS011;51233;51.982;4.594;2023-04-06T13:50:37;5.00;;;4.60;;
64799;SDS011;51233;51.982;4.594;2023-04-06T13:53:38;5.13;;;4.72;;
64799;SDS011;51233;51.982;4.594;2023-04-06T13:56:38;5.70;;;5.25;;
64799;SDS011;51233;51.982;4.594;2023-04-06T13:59:38;5.10;;;4.68;;
64799;SDS011;51233;51.982;4.594;2023-04-06T14:02:39;4.45;;;4.15;;
64799;SDS011;51233;51.982;4.594;2023-04-06T14:05:45;5.30;;;4.90;;
64799;SDS011;51233;51.982;4.594;2023-04-06T14:08:45;5.43;;;5.03;;
64799;SDS011;51233;51.982;4.594;2023-04-06T14:11:46;5.05;;;4.65;;
64799;SDS011;51233;51.982;4.594;2023-04-06T14:14:46;5.47;;;5.07;;
64799;SDS011;51233;51.982;4.594;2023-04-06T14:17:47;5.28;;;4.78;;
64799;SDS011;51233;51.982;4.594;2023-04-06T14:20:53;5.03;;;4.68;;
64799;SDS011;51233;51.982;4.594;2023-04-06T14:23:53;4.63;;;4.32;;
64799;SDS011;51233;51.982;4.594;2023-04-06T14:26:56;4.15;;;3.85;;
64799;SDS011;51233;51.982;4.594;2023-04-06T14:29:57;4.60;;;4.30;;
64799;SDS011;51233;51.982;4.594;2023-04-06T14:32:57;4.65;;;4.35;;
64799;SDS011;51233;51.982;4.594;2023-04-06T14:35:58;4.30;;;4.00;;
64799;SDS011;51233;51.982;4.594;2023-04-06T14:38:58;4.50;;;4.20;;
64799;SDS011;51233;51.982;4.594;2023-04-06T14:41:58;3.95;;;3.65;;
64799;SDS011;51233;51.982;4.594;2023-04-06T14:44:58;3.67;;;3.47;;
64799;SDS011;51233;51.982;4.594;2023-04-06T14:47:58;4.10;;;3.80;;
64799;SDS011;51233;51.982;4.594;2023-04-06T14:50:59;4.55;;;4.25;;
64799;SDS011;51233;51.982;4.594;2023-04-06T14:54:00;4.07;;;3.77;;
64799;SDS011;51233;51.982;4.594;2023-04-06T14:57:02;4.20;;;3.90;;
64799;SDS011;51233;51.982;4.594;2023-04-06T15:00:03;3.90;;;3.60;;
64799;SDS011;51233;51.982;4.594;2023-04-06T15:03:03;5.07;;;4.68;;
64799;SDS011;51233;51.982;4.594;2023-04-06T15:06:04;4.60;;;4.22;;
64799;SDS011;51233;51.982;4.594;2023-04-06T15:09:07;4.88;;;4.57;;
64799;SDS011;51233;51.982;4.594;2023-04-06T15:12:07;4.70;;;4.40;;
64799;SDS011;51233;51.982;4.594;2023-04-06T15:15:07;5.10;;;4.70;;
64799;SDS011;51233;51.982;4.594;2023-04-06T15:18:08;4.70;;;4.40;;
64799;SDS011;51233;51.982;4.594;2023-04-06T15:21:08;4.87;;;4.57;;
64799;SDS011;51233;51.982;4.594;2023-04-06T15:24:08;4.90;;;4.43;;
64799;SDS011;51233;51.982;4.594;2023-04-06T15:27:09;4.53;;;4.13;;
64799;SDS011;51233;51.982;4.594;2023-04-06T15:30:09;4.87;;;4.47;;
64799;SDS011;51233;51.982;4.594;2023-04-06T15:33:12;4.80;;;4.50;;
64799;SDS011;51233;51.982;4.594;2023-04-06T15:36:28;5.05;;;4.45;;
64799;SDS011;51233;51.982;4.594;2023-04-06T15:39:29;5.13;;;4.30;;
64799;SDS011;51233;51.982;4.594;2023-04-06T15:42:29;4.95;;;4.43;;
64799;SDS011;51233;51.982;4.594;2023-04-06T15:45:30;6.95;;;6.35;;
64799;SDS011;51233;51.982;4.594;2023-04-06T15:48:30;4.97;;;4.68;;
64799;SDS011;51233;51.982;4.594;2023-04-06T15:51:30;5.00;;;4.60;;
64799;SDS011;51233;51.982;4.594;2023-04-06T15:54:32;4.35;;;4.05;;
64799;SDS011;51233;51.982;4.594;2023-04-06T15:57:32;4.43;;;4.13;;
64799;SDS011;51233;51.982;4.594;2023-04-06T16:00:36;4.53;;;4.22;;
64799;SDS011;51233;51.982;4.594;2023-04-06T16:03:37;4.40;;;4.10;;
64799;SDS011;51233;51.982;4.594;2023-04-06T16:06:37;4.57;;;4.28;;
64799;SDS011;51233;51.982;4.594;2023-04-06T16:09:37;4.47;;;4.15;;
64799;SDS011;51233;51.982;4.594;2023-04-06T16:12:37;4.78;;;4.47;;
64799;SDS011;51233;51.982;4.594;2023-04-06T16:15:39;4.53;;;4.22;;
64799;SDS011;51233;51.982;4.594;2023-04-06T16:18:39;4.87;;;4.57;;
64799;SDS011;51233;51.982;4.594;2023-04-06T16:21:40;5.20;;;4.72;;
64799;SDS011;51233;51.982;4.594;2023-04-06T16:24:40;5.18;;;4.78;;
64799;SDS011;51233;51.982;4.594;2023-04-06T16:27:41;4.50;;;4.15;;
64799;SDS011;51233;51.982;4.594;2023-04-06T16:30:42;5.00;;;4.70;;
64799;SDS011;51233;51.982;4.594;2023-04-06T16:33:42;5.38;;;4.97;;
64799;SDS011;51233;51.982;4.594;2023-04-06T16:36:42;6.25;;;5.75;;
64799;SDS011;51233;51.982;4.594;2023-04-06T16:39:42;6.03;;;5.63;;
64799;SDS011;51233;51.982;4.594;2023-04-06T16:42:43;6.45;;;5.88;;
64799;SDS011;51233;51.982;4.594;2023-04-06T16:45:48;6.95;;;5.00;;
64799;SDS011;51233;51.982;4.594;2023-04-06T16:48:49;6.68;;;6.07;;
64799;SDS011;51233;51.982;4.594;2023-04-06T16:51:49;5.70;;;5.30;;
64799;SDS011;51233;51.982;4.594;2023-04-06T16:54:50;6.63;;;6.07;;
64799;SDS011;51233;51.982;4.594;2023-04-06T16:57:53;6.53;;;5.93;;
64799;SDS011;51233;51.982;4.594;2023-04-06T17:00:53;6.97;;;6.38;;
64799;SDS011;51233;51.982;4.594;2023-04-06T17:03:54;7.07;;;6.57;;
64799;SDS011;51233;51.982;4.594;2023-04-06T17:06:55;6.73;;;6.23;;
64799;SDS011;51233;51.982;4.594;2023-04-06T17:09:55;7.33;;;6.67;;
64799;SDS011;51233;51.982;4.594;2023-04-06T17:12:55;7.00;;;6.40;;
64799;SDS011;51233;51.982;4.594;2023-04-06T17:15:55;7.40;;;6.80;;
64799;SDS011;51233;51.982;4.594;2023-04-06T17:18:56;7.77;;;6.73;;
64799;SDS011;51233;51.982;4.594;2023-04-06T17:21:56;7.93;;;7.32;;
64799;SDS011;51233;51.982;4.594;2023-04-06T17:24:56;7.57;;;6.95;;
64799;SDS011;51233;51.982;4.594;2023-04-06T17:27:57;7.63;;;7.00;;
64799;SDS011;51233;51.982;4.594;2023-04-06T17:30:57;7.77;;;7.17;;
64799;SDS011;51233;51.982;4.594;2023-04-06T17:34:00;7.03;;;6.53;;
64799;SDS011;51233;51.982;4.594;2023-04-06T17:37:01;7.25;;;6.75;;
64799;SDS011;51233;51.982;4.594;2023-04-06T17:40:01;8.32;;;7.63;;
64799;SDS011;51233;51.982;4.594;2023-04-06T17:43:02;8.93;;;7.97;;
64799;SDS011;51233;51.982;4.594;2023-04-06T17:46:03;7.43;;;6.82;;
64799;SDS011;51233;51.982;4.594;2023-04-06T17:49:03;8.50;;;7.47;;
64799;SDS011;51233;51.982;4.594;2023-04-06T17:52:07;10.48;;;9.48;;
64799;SDS011;51233;51.982;4.594;2023-04-06T17:55:07;12.20;;;11.02;;
64799;SDS011;51233;51.982;4.594;2023-04-06T17:58:08;11.97;;;10.87;;
64799;SDS011;51233;51.982;4.594;2023-04-06T18:01:08;11.47;;;10.23;;
64799;SDS011;51233;51.982;4.594;2023-04-06T18:04:11;8.63;;;7.93;;
64799;SDS011;51233;51.982;4.594;2023-04-06T18:07:11;6.90;;;6.35;;
64799;SDS011;51233;51.982;4.594;2023-04-06T18:10:12;7.88;;;7.28;;